createdAt,value
2023-05-23T00:01:24.828Z,10.55
2023-05-23T00:03:52.727Z,11.00
2023-05-23T00:06:22.660Z,10.63
2023-05-23T00:08:53.078Z,10.93
2023-05-23T00:11:20.509Z,10.57
2023-05-23T00:13:51.300Z,10.38
2023-05-23T00:16:20.932Z,10.82
2023-05-23T00:18:47.556Z,11.23
2023-05-23T00:21:14.168Z,11.20
2023-05-23T00:23:43.592Z,11.82
2023-05-23T00:26:11.024Z,11.68
2023-05-23T00:28:40.817Z,12.23
2023-05-23T00:31:07.496Z,11.82
2023-05-23T00:33:42.112Z,10.75
2023-05-23T00:36:10.867Z,10.52
2023-05-23T00:38:37.365Z,10.95
2023-05-23T00:41:03.948Z,10.50
2023-05-23T00:43:30.518Z,10.90
2023-05-23T00:45:57.801Z,10.43
2023-05-23T00:48:27.607Z,11.02
2023-05-23T00:50:55.421Z,11.38
2023-05-23T00:53:22.270Z,11.52
2023-05-23T00:56:00.808Z,11.13
2023-05-23T00:58:27.607Z,11.00
2023-05-23T01:00:54.992Z,10.32
2023-05-23T01:03:21.700Z,11.27
2023-05-23T01:05:48.272Z,11.18
2023-05-23T01:08:15.897Z,11.13
2023-05-23T01:10:44.950Z,12.10
2023-05-23T01:13:16.891Z,12.07
2023-05-23T01:16:18.721Z,11.73
2023-05-23T01:18:54.706Z,12.80
2023-05-23T01:21:24.308Z,12.20
2023-05-23T01:23:57.034Z,12.70
2023-05-23T01:27:01.132Z,11.80
2023-05-23T01:29:38.949Z,11.73
2023-05-23T01:32:09.718Z,12.48
2023-05-23T01:34:36.846Z,12.50
2023-05-23T01:37:08.680Z,12.60
2023-05-23T01:42:02.353Z,12.85
2023-05-23T01:44:29.212Z,12.50
2023-05-23T01:46:55.794Z,12.55
2023-05-23T01:49:24.085Z,12.70
2023-05-23T01:51:50.849Z,13.65
2023-05-23T01:54:19.815Z,14.43
2023-05-23T01:56:48.299Z,14.25
2023-05-23T01:59:14.800Z,15.32
2023-05-23T02:01:41.679Z,16.17
2023-05-23T02:04:08.240Z,16.52
2023-05-23T02:06:34.831Z,16.27
2023-05-23T02:09:01.549Z,15.43
2023-05-23T02:11:28.076Z,15.75
2023-05-23T02:13:54.560Z,15.85
2023-05-23T02:16:21.721Z,15.85
2023-05-23T02:18:49.295Z,17.30
2023-05-23T02:21:15.891Z,17.48
2023-05-23T02:23:42.429Z,17.98
2023-05-23T02:26:08.914Z,19.52
2023-05-23T02:28:35.679Z,18.63
2023-05-23T02:31:02.669Z,20.33
2023-05-23T02:33:29.256Z,19.58
2023-05-23T02:35:55.804Z,20.65
2023-05-23T02:38:22.322Z,21.08
2023-05-23T02:40:50.562Z,20.52
2023-05-23T02:43:17.226Z,21.48
2023-05-23T02:45:43.885Z,21.55
2023-05-23T02:48:12.075Z,20.98
2023-05-23T02:50:38.817Z,22.00
2023-05-23T02:53:05.686Z,23.27
2023-05-23T02:55:32.178Z,21.63
2023-05-23T02:57:58.861Z,22.77
2023-05-23T03:00:26.090Z,22.52
2023-05-23T03:02:52.835Z,25.65
2023-05-23T03:05:19.635Z,28.10
2023-05-23T03:07:46.212Z,35.45
2023-05-23T03:10:15.709Z,33.15
2023-05-23T03:12:42.496Z,37.60
2023-05-23T03:15:09.815Z,37.65
2023-05-23T03:17:37.096Z,35.95
2023-05-23T03:20:04.901Z,34.05
2023-05-23T03:22:31.446Z,30.42
2023-05-23T03:24:58.062Z,27.50
2023-05-23T03:27:24.579Z,28.95
2023-05-23T03:29:54.201Z,30.02
2023-05-23T03:32:20.804Z,28.08
2023-05-23T03:34:47.444Z,27.90
2023-05-23T03:37:13.965Z,27.50
2023-05-23T03:39:40.519Z,25.77
2023-05-23T03:42:07.580Z,26.17
2023-05-23T03:44:34.130Z,25.23
2023-05-23T03:47:00.746Z,22.05
2023-05-23T03:49:27.317Z,22.15
2023-05-23T03:51:53.844Z,22.25
2023-05-23T03:54:21.152Z,23.67
2023-05-23T03:56:48.829Z,22.38
2023-05-23T03:59:15.581Z,20.90
2023-05-23T04:01:42.096Z,19.60
2023-05-23T04:04:08.748Z,18.85
2023-05-23T04:06:35.588Z,19.38
2023-05-23T04:09:03.254Z,18.33
2023-05-23T04:11:30.244Z,17.20
2023-05-23T04:13:56.845Z,17.45
2023-05-23T04:16:24.050Z,17.02
2023-05-23T04:18:52.967Z,16.52
2023-05-23T04:21:19.520Z,16.42
2023-05-23T04:23:46.159Z,15.88
2023-05-23T04:26:13.148Z,16.38
2023-05-23T04:28:40.089Z,16.80
2023-05-23T04:31:06.729Z,17.10
2023-05-23T04:33:36.674Z,17.17
2023-05-23T04:36:03.470Z,17.67
2023-05-23T04:38:30.017Z,17.30
2023-05-23T04:40:58.030Z,18.15
2023-05-23T04:43:26.547Z,17.75
2023-05-23T04:45:57.784Z,18.27
2023-05-23T04:48:24.836Z,18.92
2023-05-23T04:50:52.667Z,18.40
2023-05-23T04:53:19.260Z,18.23
2023-05-23T04:55:46.244Z,17.50
2023-05-23T04:58:13.064Z,19.13
2023-05-23T05:00:40.098Z,18.98
2023-05-23T05:03:06.929Z,17.92
2023-05-23T05:05:33.495Z,19.77
2023-05-23T05:07:59.981Z,19.30
2023-05-23T05:10:26.480Z,18.90
2023-05-23T05:12:53.018Z,19.55
2023-05-23T05:15:19.690Z,18.95
2023-05-23T05:17:48.905Z,18.83
2023-05-23T05:20:19.334Z,19.08
2023-05-23T05:22:46.135Z,18.00
2023-05-23T05:25:12.723Z,18.70
2023-05-23T05:27:40.005Z,17.42
2023-05-23T05:30:13.016Z,18.38
2023-05-23T05:32:39.713Z,16.63
2023-05-23T05:35:08.524Z,16.67
2023-05-23T05:37:35.054Z,16.08
2023-05-23T05:40:06.521Z,15.98
2023-05-23T05:42:33.199Z,16.10
2023-05-23T05:44:59.718Z,15.73
2023-05-23T05:47:26.603Z,15.77
2023-05-23T05:49:53.094Z,15.65
2023-05-23T05:52:19.685Z,15.25
2023-05-23T05:54:46.187Z,14.77
2023-05-23T05:57:13.066Z,15.95
2023-05-23T05:59:39.561Z,14.68
2023-05-23T06:02:06.748Z,15.23
2023-05-23T06:04:33.278Z,15.13
2023-05-23T06:06:59.852Z,13.70
2023-05-23T06:09:26.386Z,14.00
2023-05-23T06:11:52.932Z,12.77
2023-05-23T06:14:19.437Z,12.55
2023-05-23T06:16:46.473Z,12.02
2023-05-23T06:19:13.187Z,11.90
2023-05-23T06:21:39.794Z,11.38
2023-05-23T06:24:06.364Z,11.60
2023-05-23T06:26:33.538Z,11.13
2023-05-23T06:29:00.083Z,11.10
2023-05-23T06:31:26.678Z,10.88
2023-05-23T06:33:54.472Z,10.25
2023-05-23T06:36:21.003Z,9.82
2023-05-23T06:38:47.642Z,11.65
2023-05-23T06:41:14.152Z,11.73
2023-05-23T06:43:40.684Z,10.32
2023-05-23T06:46:07.223Z,9.63
2023-05-23T06:48:33.782Z,9.65
2023-05-23T06:51:00.355Z,9.68
2023-05-23T06:53:26.901Z,11.10
2023-05-23T06:55:53.382Z,10.77
2023-05-23T06:58:25.144Z,9.93
2023-05-23T07:03:18.128Z,9.00
2023-05-23T07:05:44.799Z,8.25
2023-05-23T07:08:11.873Z,7.95
2023-05-23T07:10:41.664Z,6.63
2023-05-23T07:13:08.716Z,6.20
2023-05-23T07:15:35.389Z,5.35
2023-05-23T07:18:01.998Z,5.25
2023-05-23T07:20:28.552Z,4.88
2023-05-23T07:22:55.072Z,4.70
2023-05-23T07:25:23.451Z,3.95
2023-05-23T07:27:50.560Z,4.43
2023-05-23T07:30:17.130Z,3.70
2023-05-23T07:32:43.649Z,3.80
2023-05-23T07:35:10.205Z,3.70
2023-05-23T07:37:36.741Z,3.65
2023-05-23T07:40:04.682Z,3.35
2023-05-23T07:42:31.204Z,3.17
2023-05-23T07:44:57.769Z,3.13
2023-05-23T07:47:24.495Z,3.72
2023-05-23T07:49:52.282Z,3.70
2023-05-23T07:52:19.245Z,4.22
2023-05-23T07:54:46.099Z,4.00
2023-05-23T07:57:12.725Z,4.05
2023-05-23T07:59:39.297Z,4.40
2023-05-23T08:02:05.942Z,4.20
2023-05-23T08:04:37.379Z,4.60
2023-05-23T08:07:06.982Z,4.70
2023-05-23T08:09:33.553Z,4.63
2023-05-23T08:12:00.223Z,4.30
2023-05-23T08:14:38.204Z,4.10
2023-05-23T08:17:14.165Z,3.92
2023-05-23T08:19:42.008Z,3.95
2023-05-23T08:22:09.619Z,3.67
2023-05-23T08:24:36.121Z,3.63
2023-05-23T08:27:02.775Z,3.67
2023-05-23T08:29:29.328Z,3.90
2023-05-23T08:31:56.081Z,3.95
2023-05-23T08:34:22.663Z,4.30
2023-05-23T08:36:49.245Z,3.55
2023-05-23T08:39:16.049Z,3.70
2023-05-23T08:41:42.665Z,3.55
2023-05-23T08:44:09.285Z,3.70
2023-05-23T08:46:41.183Z,3.90
2023-05-23T08:49:08.709Z,4.20
2023-05-23T08:51:37.873Z,3.55
2023-05-23T08:54:06.203Z,3.85
2023-05-23T08:56:32.920Z,4.40
2023-05-23T08:58:59.553Z,4.07
2023-05-23T09:01:26.507Z,4.40
2023-05-23T09:03:53.235Z,4.45
2023-05-23T09:06:21.693Z,4.50
2023-05-23T09:08:48.513Z,4.22
2023-05-23T09:11:15.152Z,4.28
2023-05-23T09:13:41.908Z,3.80
2023-05-23T09:16:11.024Z,4.10
2023-05-23T09:18:38.781Z,4.32
2023-05-23T09:21:05.957Z,4.15
2023-05-23T09:23:34.230Z,4.60
2023-05-23T09:26:04.921Z,4.20
2023-05-23T09:28:33.170Z,3.95
2023-05-23T09:31:00.920Z,4.30
2023-05-23T09:33:48.640Z,4.60
2023-05-23T09:36:15.769Z,4.05
2023-05-23T09:38:44.825Z,4.00
2023-05-23T09:41:14.457Z,3.78
2023-05-23T09:43:53.515Z,3.92
2023-05-23T09:46:21.249Z,4.05
2023-05-23T09:48:51.793Z,4.15
2023-05-23T09:51:23.836Z,4.10
2023-05-23T09:53:51.011Z,4.47
2023-05-23T09:56:18.189Z,4.50
2023-05-23T09:58:49.364Z,4.55
2023-05-23T10:01:16.780Z,5.13
2023-05-23T10:03:50.411Z,5.28
2023-05-23T10:06:29.539Z,5.35
2023-05-23T10:09:07.746Z,4.90
2023-05-23T10:11:34.370Z,5.40
2023-05-23T10:14:09.942Z,5.70
2023-05-23T10:16:45.570Z,5.13
2023-05-23T10:19:26.331Z,6.05
2023-05-23T10:22:06.642Z,5.13
2023-05-23T10:24:34.359Z,5.82
2023-05-23T10:27:01.453Z,4.43
2023-05-23T10:29:28.898Z,5.75
2023-05-23T10:31:57.701Z,5.13
2023-05-23T10:34:40.922Z,5.40
2023-05-23T10:37:10.297Z,7.60
2023-05-23T10:39:55.915Z,8.20
2023-05-23T10:42:28.252Z,9.20
2023-05-23T10:45:14.675Z,10.77
2023-05-23T10:47:41.290Z,11.30
2023-05-23T10:50:12.053Z,11.05
2023-05-23T10:52:42.249Z,11.07
2023-05-23T10:55:17.752Z,11.05
2023-05-23T10:57:44.916Z,10.15
2023-05-23T11:00:18.009Z,11.05
2023-05-23T11:02:55.492Z,11.77
2023-05-23T11:05:28.307Z,10.68
2023-05-23T11:08:13.759Z,10.55
2023-05-23T11:10:59.967Z,11.52
2023-05-23T11:13:46.763Z,11.30
2023-05-23T11:16:43.671Z,11.48
2023-05-23T11:19:19.717Z,11.40
2023-05-23T11:21:49.821Z,11.05
2023-05-23T11:24:17.662Z,11.65
2023-05-23T11:27:04.122Z,10.45
2023-05-23T11:29:31.492Z,10.80
2023-05-23T11:31:58.349Z,10.95
2023-05-23T11:34:27.905Z,10.02
2023-05-23T11:36:55.676Z,9.70
2023-05-23T11:39:23.307Z,8.90
2023-05-23T11:42:03.543Z,7.90
2023-05-23T11:44:30.598Z,7.50
2023-05-23T11:47:04.961Z,7.20
2023-05-23T11:49:32.501Z,7.18
2023-05-23T11:52:00.254Z,6.72
2023-05-23T11:54:27.457Z,6.82
2023-05-23T11:56:55.018Z,7.25
2023-05-23T11:59:23.012Z,7.85
2023-05-23T12:01:49.605Z,8.80
2023-05-23T12:04:16.226Z,9.65
2023-05-23T12:06:42.949Z,11.35
2023-05-23T12:09:12.620Z,10.50
2023-05-23T12:11:40.924Z,12.77
2023-05-23T12:14:16.272Z,11.68
2023-05-23T12:16:48.210Z,13.30
2023-05-23T12:19:17.607Z,12.75
2023-05-23T12:21:49.245Z,13.13
2023-05-23T12:24:17.767Z,13.77
2023-05-23T12:26:55.354Z,13.60
2023-05-23T12:29:28.135Z,14.45
2023-05-23T12:31:54.915Z,15.23
2023-05-23T12:34:21.850Z,14.70
2023-05-23T12:36:50.040Z,13.05
2023-05-23T12:39:29.158Z,13.35
2023-05-23T12:42:06.712Z,12.18
2023-05-23T12:44:33.298Z,13.07
2023-05-23T12:46:59.887Z,12.73
2023-05-23T12:49:30.058Z,13.52
2023-05-23T12:51:56.627Z,12.95
2023-05-23T12:54:23.126Z,12.88
2023-05-23T12:56:49.711Z,11.82
2023-05-23T12:59:16.236Z,11.90
2023-05-23T13:01:42.865Z,12.27
2023-05-23T13:04:09.531Z,11.88
2023-05-23T13:06:36.068Z,11.98
2023-05-23T13:09:02.672Z,11.75
2023-05-23T13:11:31.176Z,12.48
2023-05-23T13:13:58.535Z,12.35
2023-05-23T13:16:25.054Z,10.05
2023-05-23T13:18:52.583Z,11.18
2023-05-23T13:21:19.491Z,11.20
2023-05-23T13:23:46.205Z,12.05
2023-05-23T13:26:14.478Z,12.73
2023-05-23T13:28:41.122Z,11.88
2023-05-23T13:31:07.810Z,10.70
2023-05-23T13:33:34.709Z,12.15
2023-05-23T13:36:01.365Z,11.85
2023-05-23T13:38:27.985Z,11.55
2023-05-23T13:40:54.894Z,11.93
2023-05-23T13:43:22.032Z,12.18
2023-05-23T13:45:48.603Z,11.25
2023-05-23T13:48:15.503Z,11.82
2023-05-23T13:50:42.937Z,11.70
2023-05-23T13:53:15.144Z,10.73
2023-05-23T13:58:08.241Z,11.13
2023-05-23T14:00:34.817Z,11.55
2023-05-23T14:03:01.370Z,10.27
2023-05-23T14:05:28.057Z,11.07
2023-05-23T14:07:54.604Z,10.75
2023-05-23T14:10:21.912Z,10.60
2023-05-23T14:12:48.466Z,10.82
2023-05-23T14:15:16.260Z,9.32
2023-05-23T14:17:45.843Z,8.60
2023-05-23T14:20:12.971Z,9.73
2023-05-23T14:22:39.466Z,10.18
2023-05-23T14:25:06.771Z,8.40
2023-05-23T14:27:34.421Z,8.63
2023-05-23T14:30:01.155Z,8.27
2023-05-23T14:32:27.692Z,9.32
2023-05-23T14:34:55.327Z,7.68
2023-05-23T14:37:21.845Z,7.55
2023-05-23T14:39:48.441Z,6.72
2023-05-23T14:42:14.954Z,6.93
2023-05-23T14:44:41.634Z,7.00
2023-05-23T14:47:08.137Z,7.20
2023-05-23T14:49:34.750Z,7.90
2023-05-23T14:52:01.275Z,7.38
2023-05-23T14:54:29.003Z,7.32
2023-05-23T14:56:56.837Z,8.00
2023-05-23T14:59:23.564Z,8.27
2023-05-23T15:01:50.276Z,7.68
2023-05-23T15:04:16.848Z,8.32
2023-05-23T15:06:43.428Z,7.35
2023-05-23T15:09:10.587Z,7.63
2023-05-23T15:11:38.930Z,6.53
2023-05-23T15:14:05.954Z,6.82
2023-05-23T15:16:33.315Z,6.82
2023-05-23T15:19:00.359Z,6.75
2023-05-23T15:21:27.044Z,6.10
2023-05-23T15:23:53.695Z,7.13
2023-05-23T15:26:20.378Z,7.70
2023-05-23T15:28:47.150Z,8.05
2023-05-23T15:31:16.835Z,8.68
2023-05-23T15:33:43.326Z,9.23
2023-05-23T15:36:10.090Z,9.40
2023-05-23T15:38:36.600Z,9.32
2023-05-23T15:41:04.849Z,8.82
2023-05-23T15:43:32.586Z,9.35
2023-05-23T15:46:00.547Z,8.48
2023-05-23T15:48:27.529Z,8.93
2023-05-23T15:50:54.546Z,8.73
2023-05-23T15:53:21.428Z,8.80
2023-05-23T15:55:48.011Z,8.38
2023-05-23T15:58:18.851Z,9.70
2023-05-23T16:00:45.363Z,8.40
2023-05-23T16:03:11.993Z,8.48
2023-05-23T16:05:38.605Z,7.90
2023-05-23T16:08:05.291Z,8.95
2023-05-23T16:10:31.764Z,8.23
2023-05-23T16:12:58.331Z,7.72
2023-05-23T16:15:28.327Z,7.30
2023-05-23T16:17:54.897Z,7.30
2023-05-23T16:20:21.474Z,7.97
2023-05-23T16:22:48.266Z,7.18
2023-05-23T16:25:14.791Z,7.03
2023-05-23T16:27:41.442Z,7.00
2023-05-23T16:30:08.539Z,6.40
2023-05-23T16:32:35.571Z,6.50
2023-05-23T16:35:02.092Z,6.93
2023-05-23T16:37:28.658Z,6.60
2023-05-23T16:39:55.356Z,6.30
2023-05-23T16:42:22.362Z,5.97
2023-05-23T16:44:48.914Z,6.25
2023-05-23T16:47:15.599Z,6.65
2023-05-23T16:49:42.183Z,6.40
2023-05-23T16:52:08.708Z,5.45
2023-05-23T16:54:35.265Z,5.70
2023-05-23T16:57:02.246Z,5.78
2023-05-23T16:59:29.886Z,5.47
2023-05-23T17:01:56.872Z,6.22
2023-05-23T17:04:23.709Z,5.50
2023-05-23T17:06:50.290Z,5.20
2023-05-23T17:09:18.143Z,5.50
2023-05-23T17:11:44.933Z,5.90
2023-05-23T17:14:11.879Z,5.35
2023-05-23T17:16:38.713Z,5.72
2023-05-23T17:19:05.640Z,5.90
2023-05-23T17:21:32.847Z,5.80
2023-05-23T17:23:59.440Z,5.47
2023-05-23T17:26:27.200Z,5.55
2023-05-23T17:28:53.817Z,5.38
2023-05-23T17:31:20.997Z,5.50
2023-05-23T17:33:47.604Z,6.07
2023-05-23T17:36:14.199Z,5.50
2023-05-23T17:38:41.205Z,4.63
2023-05-23T17:41:07.907Z,5.53
2023-05-23T17:43:34.462Z,5.45
2023-05-23T17:46:01.205Z,5.10
2023-05-23T17:48:38.807Z,5.38
2023-05-23T17:51:12.800Z,5.93
2023-05-23T17:53:41.293Z,5.10
2023-05-23T17:56:11.377Z,5.53
2023-05-23T17:58:39.838Z,5.35
2023-05-23T18:01:08.543Z,5.18
2023-05-23T18:03:35.074Z,4.93
2023-05-23T18:06:01.626Z,5.03
2023-05-23T18:08:28.118Z,5.35
2023-05-23T18:10:54.680Z,4.57
2023-05-23T18:13:21.398Z,4.50
2023-05-23T18:15:48.021Z,5.57
2023-05-23T18:18:15.622Z,4.50
2023-05-23T18:20:42.751Z,5.10
2023-05-23T18:23:09.472Z,4.88
2023-05-23T18:25:36.441Z,4.43
2023-05-23T18:28:03.105Z,4.63
2023-05-23T18:30:32.476Z,4.30
2023-05-23T18:32:59.181Z,4.75
2023-05-23T18:35:25.958Z,5.13
2023-05-23T18:37:53.557Z,4.82
2023-05-23T18:40:21.694Z,4.35
2023-05-23T18:42:48.635Z,5.15
2023-05-23T18:45:15.225Z,4.43
2023-05-23T18:47:42.275Z,4.97
2023-05-23T18:50:09.245Z,4.45
2023-05-23T18:52:37.306Z,4.80
2023-05-23T18:55:06.718Z,4.95
2023-05-23T18:57:33.258Z,4.70
2023-05-23T18:59:59.883Z,4.60
2023-05-23T19:02:27.006Z,4.47
2023-05-23T19:04:53.704Z,4.53
2023-05-23T19:07:20.253Z,4.05
2023-05-23T19:09:46.926Z,4.20
2023-05-23T19:12:13.560Z,3.85
2023-05-23T19:14:40.133Z,4.45
2023-05-23T19:17:06.765Z,4.72
2023-05-23T19:19:34.830Z,4.60
2023-05-23T19:22:01.585Z,4.65
2023-05-23T19:24:28.125Z,3.92
2023-05-23T19:26:54.724Z,4.28
2023-05-23T19:29:21.474Z,4.80
2023-05-23T19:31:48.152Z,4.82
2023-05-23T19:34:14.735Z,3.55
2023-05-23T19:36:41.547Z,4.45
2023-05-23T19:39:08.481Z,3.67
2023-05-23T19:41:35.003Z,4.35
2023-05-23T19:44:04.515Z,4.13
2023-05-23T19:46:31.121Z,4.28
2023-05-23T19:48:57.912Z,3.72
2023-05-23T19:51:27.480Z,4.28
2023-05-23T19:53:57.798Z,3.72
2023-05-23T19:56:25.804Z,4.63
2023-05-23T19:58:52.334Z,3.78
2023-05-23T20:01:18.879Z,3.67
2023-05-23T20:03:51.197Z,4.13
2023-05-23T20:06:20.780Z,3.60
2023-05-23T20:08:47.437Z,4.18
2023-05-23T20:11:14.116Z,4.05
2023-05-23T20:13:40.776Z,4.22
2023-05-23T20:16:08.271Z,4.18
2023-05-23T20:18:34.961Z,3.97
2023-05-23T20:21:04.268Z,3.80
2023-05-23T20:23:31.657Z,4.40
2023-05-23T20:25:58.178Z,4.40
2023-05-23T20:28:24.822Z,4.47
2023-05-23T20:30:57.312Z,3.80
2023-05-23T20:33:24.013Z,3.72
2023-05-23T20:35:50.576Z,4.15
2023-05-23T20:38:19.869Z,3.97
2023-05-23T20:40:49.575Z,4.72
2023-05-23T20:43:17.341Z,4.82
2023-05-23T20:45:44.111Z,4.50
2023-05-23T20:48:10.932Z,3.78
2023-05-23T20:50:38.576Z,4.47
2023-05-23T20:53:06.364Z,4.45
2023-05-23T20:55:35.826Z,4.50
2023-05-23T20:58:05.025Z,4.10
2023-05-23T21:00:31.543Z,4.63
2023-05-23T21:02:58.138Z,4.47
2023-05-23T21:05:24.842Z,4.07
2023-05-23T21:07:53.940Z,4.20
2023-05-23T21:10:20.463Z,3.92
2023-05-23T21:12:50.173Z,4.28
2023-05-23T21:15:19.991Z,4.35
2023-05-23T21:17:57.776Z,3.95
2023-05-23T21:20:25.030Z,3.97
2023-05-23T21:22:51.641Z,4.82
2023-05-23T21:25:18.281Z,4.28
2023-05-23T21:27:44.788Z,4.03
2023-05-23T21:30:12.003Z,4.38
2023-05-23T21:32:45.412Z,4.15
2023-05-23T21:35:12.081Z,4.07
2023-05-23T21:37:38.587Z,3.97
2023-05-23T21:40:05.812Z,4.72
2023-05-23T21:42:32.297Z,3.78
2023-05-23T21:44:58.837Z,4.22
2023-05-23T21:47:26.209Z,3.97
2023-05-23T21:49:52.805Z,4.53
2023-05-23T21:52:21.401Z,4.65
2023-05-23T21:54:48.806Z,4.60
2023-05-23T21:57:16.180Z,4.35
2023-05-23T21:59:42.852Z,3.92
2023-05-23T22:02:10.211Z,4.55
2023-05-23T22:04:36.892Z,4.50
2023-05-23T22:07:03.565Z,4.43
2023-05-23T22:09:30.148Z,3.90
2023-05-23T22:11:56.779Z,4.63
2023-05-23T22:14:23.301Z,4.15
2023-05-23T22:16:50.245Z,4.00
2023-05-23T22:19:19.910Z,4.50
2023-05-23T22:21:46.955Z,4.45
2023-05-23T22:24:13.726Z,5.30
2023-05-23T22:26:40.353Z,4.15
2023-05-23T22:29:07.129Z,4.68
2023-05-23T22:31:35.427Z,4.82
2023-05-23T22:34:02.287Z,4.28
2023-05-23T22:36:28.904Z,4.50
2023-05-23T22:38:56.073Z,4.22
2023-05-23T22:41:25.591Z,4.30
2023-05-23T22:43:54.844Z,4.40
2023-05-23T22:46:25.003Z,4.45
2023-05-23T22:48:52.596Z,4.90
2023-05-23T22:51:19.847Z,4.50
2023-05-23T22:53:46.513Z,4.07
2023-05-23T22:56:13.474Z,4.03
2023-05-23T22:58:40.028Z,5.18
2023-05-23T23:01:08.226Z,4.30
2023-05-23T23:03:37.277Z,5.10
2023-05-23T23:06:13.511Z,4.57
2023-05-23T23:08:42.424Z,4.70
2023-05-23T23:11:08.929Z,4.20
2023-05-23T23:13:35.688Z,4.85
2023-05-23T23:16:02.237Z,5.13
2023-05-23T23:18:28.760Z,4.97
2023-05-23T23:20:55.377Z,4.88
2023-05-23T23:23:21.915Z,4.20
2023-05-23T23:25:54.828Z,4.55
2023-05-23T23:28:21.696Z,4.03
2023-05-23T23:30:48.583Z,4.32
2023-05-23T23:33:15.366Z,5.07
2023-05-23T23:35:45.368Z,5.00
2023-05-23T23:38:11.996Z,4.50
2023-05-23T23:40:38.527Z,4.55
2023-05-23T23:43:05.066Z,4.20
2023-05-23T23:45:31.583Z,4.28
2023-05-23T23:47:58.143Z,4.63
2023-05-23T23:50:30.707Z,4.95
2023-05-23T23:52:58.037Z,4.60
2023-05-23T23:55:24.627Z,5.07
2023-05-23T23:57:51.092Z,4.57
